sensor_id;sensor_type;location;lat;lon;timestamp;P1;durP1;ratioP1;P2;durP2;ratioP2
80400;SDS011;69727;53.132;8.230;2024-01-11T00:00:49;39.53;;;15.15;;
80400;SDS011;69727;53.132;8.230;2024-01-11T00:03:14;45.25;;;16.13;;
80400;SDS011;69727;53.132;8.230;2024-01-11T00:05:40;46.03;;;16.75;;
80400;SDS011;69727;53.132;8.230;2024-01-11T00:08:07;41.42;;;15.85;;
80400;SDS011;69727;53.132;8.230;2024-01-11T00:10:35;44.13;;;14.85;;
80400;SDS011;69727;53.132;8.230;2024-01-11T00:13:01;44.17;;;16.38;;
80400;SDS011;69727;53.132;8.230;2024-01-11T00:15:27;46.75;;;16.92;;
80400;SDS011;69727;53.132;8.230;2024-01-11T00:17:52;53.03;;;19.35;;
80400;SDS011;69727;53.132;8.230;2024-01-11T00:20:18;48.58;;;16.05;;
80400;SDS011;69727;53.132;8.230;2024-01-11T00:22:46;46.75;;;16.85;;
80400;SDS011;69727;53.132;8.230;2024-01-11T00:25:11;41.17;;;16.83;;
80400;SDS011;69727;53.132;8.230;2024-01-11T00:27:37;53.58;;;17.50;;
80400;SDS011;69727;53.132;8.230;2024-01-11T00:30:03;50.55;;;18.30;;
80400;SDS011;69727;53.132;8.230;2024-01-11T00:32:29;49.50;;;17.92;;
80400;SDS011;69727;53.132;8.230;2024-01-11T00:34:55;48.63;;;16.90;;
80400;SDS011;69727;53.132;8.230;2024-01-11T00:37:21;47.15;;;17.85;;
80400;SDS011;69727;53.132;8.230;2024-01-11T00:39:46;46.45;;;16.98;;
80400;SDS011;69727;53.132;8.230;2024-01-11T00:42:12;51.67;;;16.88;;
80400;SDS011;69727;53.132;8.230;2024-01-11T00:44:38;44.08;;;15.65;;
80400;SDS011;69727;53.132;8.230;2024-01-11T00:47:03;49.85;;;19.38;;
80400;SDS011;69727;53.132;8.230;2024-01-11T00:49:29;44.03;;;15.63;;
80400;SDS011;69727;53.132;8.230;2024-01-11T00:51:57;47.70;;;16.45;;
80400;SDS011;69727;53.132;8.230;2024-01-11T00:54:26;48.03;;;15.65;;
80400;SDS011;69727;53.132;8.230;2024-01-11T00:56:52;42.63;;;15.32;;
80400;SDS011;69727;53.132;8.230;2024-01-11T00:59:20;38.60;;;15.60;;
80400;SDS011;69727;53.132;8.230;2024-01-11T01:01:51;52.30;;;18.08;;
80400;SDS011;69727;53.132;8.230;2024-01-11T01:04:16;45.08;;;16.88;;
80400;SDS011;69727;53.132;8.230;2024-01-11T01:06:42;46.25;;;16.40;;
80400;SDS011;69727;53.132;8.230;2024-01-11T01:09:11;50.75;;;16.50;;
80400;SDS011;69727;53.132;8.230;2024-01-11T01:11:38;45.25;;;16.05;;
80400;SDS011;69727;53.132;8.230;2024-01-11T01:14:04;45.45;;;15.32;;
80400;SDS011;69727;53.132;8.230;2024-01-11T01:16:30;42.35;;;15.23;;
80400;SDS011;69727;53.132;8.230;2024-01-11T01:18:55;44.58;;;15.43;;
80400;SDS011;69727;53.132;8.230;2024-01-11T01:21:21;42.05;;;15.05;;
80400;SDS011;69727;53.132;8.230;2024-01-11T01:23:46;40.17;;;15.45;;
80400;SDS011;69727;53.132;8.230;2024-01-11T01:26:12;45.60;;;15.00;;
80400;SDS011;69727;53.132;8.230;2024-01-11T01:28:37;47.72;;;16.20;;
80400;SDS011;69727;53.132;8.230;2024-01-11T01:31:03;49.28;;;17.30;;
80400;SDS011;69727;53.132;8.230;2024-01-11T01:33:28;48.63;;;17.25;;
80400;SDS011;69727;53.132;8.230;2024-01-11T01:35:54;47.30;;;16.40;;
80400;SDS011;69727;53.132;8.230;2024-01-11T01:38:19;47.83;;;16.83;;
80400;SDS011;69727;53.132;8.230;2024-01-11T01:40:47;43.17;;;15.95;;
80400;SDS011;69727;53.132;8.230;2024-01-11T01:43:13;48.63;;;16.10;;
80400;SDS011;69727;53.132;8.230;2024-01-11T01:45:38;49.63;;;18.08;;
80400;SDS011;69727;53.132;8.230;2024-01-11T01:48:04;46.03;;;18.30;;
80400;SDS011;69727;53.132;8.230;2024-01-11T01:50:30;41.50;;;15.80;;
80400;SDS011;69727;53.132;8.230;2024-01-11T01:52:56;48.85;;;16.67;;
80400;SDS011;69727;53.132;8.230;2024-01-11T01:55:23;48.60;;;16.98;;
80400;SDS011;69727;53.132;8.230;2024-01-11T01:57:50;49.05;;;18.10;;
80400;SDS011;69727;53.132;8.230;2024-01-11T02:00:17;44.88;;;17.80;;
80400;SDS011;69727;53.132;8.230;2024-01-11T02:02:43;48.92;;;17.30;;
80400;SDS011;69727;53.132;8.230;2024-01-11T02:05:12;51.97;;;17.20;;
80400;SDS011;69727;53.132;8.230;2024-01-11T02:07:42;45.88;;;14.70;;
80400;SDS011;69727;53.132;8.230;2024-01-11T02:10:08;47.75;;;17.27;;
80400;SDS011;69727;53.132;8.230;2024-01-11T02:12:39;42.08;;;15.38;;
80400;SDS011;69727;53.132;8.230;2024-01-11T02:15:08;47.83;;;16.02;;
80400;SDS011;69727;53.132;8.230;2024-01-11T02:17:33;48.22;;;15.10;;
80400;SDS011;69727;53.132;8.230;2024-01-11T02:20:01;46.75;;;15.68;;
80400;SDS011;69727;53.132;8.230;2024-01-11T02:22:38;46.40;;;17.52;;
80400;SDS011;69727;53.132;8.230;2024-01-11T02:25:05;50.47;;;17.13;;
80400;SDS011;69727;53.132;8.230;2024-01-11T02:27:31;48.63;;;17.85;;
80400;SDS011;69727;53.132;8.230;2024-01-11T02:46:53;52.30;;;17.13;;
80400;SDS011;69727;53.132;8.230;2024-01-11T02:49:19;52.47;;;16.08;;
80400;SDS011;69727;53.132;8.230;2024-01-11T02:51:44;45.38;;;15.95;;
80400;SDS011;69727;53.132;8.230;2024-01-11T02:54:13;53.25;;;16.73;;
80400;SDS011;69727;53.132;8.230;2024-01-11T02:56:38;51.40;;;17.08;;
80400;SDS011;69727;53.132;8.230;2024-01-11T02:59:04;54.53;;;16.88;;
80400;SDS011;69727;53.132;8.230;2024-01-11T03:01:32;53.47;;;17.23;;
80400;SDS011;69727;53.132;8.230;2024-01-11T03:03:58;51.30;;;17.13;;
80400;SDS011;69727;53.132;8.230;2024-01-11T03:06:24;51.60;;;18.15;;
80400;SDS011;69727;53.132;8.230;2024-01-11T03:08:50;49.63;;;17.80;;
80400;SDS011;69727;53.132;8.230;2024-01-11T03:11:18;49.38;;;15.98;;
80400;SDS011;69727;53.132;8.230;2024-01-11T03:13:46;53.35;;;16.33;;
80400;SDS011;69727;53.132;8.230;2024-01-11T03:16:12;53.28;;;16.80;;
80400;SDS011;69727;53.132;8.230;2024-01-11T03:18:38;49.67;;;15.65;;
80400;SDS011;69727;53.132;8.230;2024-01-11T03:21:04;59.20;;;17.02;;
80400;SDS011;69727;53.132;8.230;2024-01-11T03:23:30;52.63;;;16.35;;
80400;SDS011;69727;53.132;8.230;2024-01-11T03:25:55;51.30;;;17.08;;
80400;SDS011;69727;53.132;8.230;2024-01-11T03:28:21;48.10;;;16.10;;
80400;SDS011;69727;53.132;8.230;2024-01-11T03:30:46;51.10;;;17.38;;
80400;SDS011;69727;53.132;8.230;2024-01-11T03:33:12;55.55;;;17.88;;
80400;SDS011;69727;53.132;8.230;2024-01-11T03:35:38;50.42;;;17.00;;
80400;SDS011;69727;53.132;8.230;2024-01-11T03:38:05;52.03;;;16.33;;
80400;SDS011;69727;53.132;8.230;2024-01-11T03:40:36;50.97;;;17.58;;
80400;SDS011;69727;53.132;8.230;2024-01-11T03:43:41;49.03;;;16.88;;
80400;SDS011;69727;53.132;8.230;2024-01-11T03:46:06;45.25;;;15.68;;
80400;SDS011;69727;53.132;8.230;2024-01-11T03:48:32;47.15;;;17.17;;
80400;SDS011;69727;53.132;8.230;2024-01-11T03:50:58;49.40;;;17.25;;
80400;SDS011;69727;53.132;8.230;2024-01-11T03:53:23;46.50;;;15.50;;
80400;SDS011;69727;53.132;8.230;2024-01-11T03:55:49;46.20;;;16.80;;
80400;SDS011;69727;53.132;8.230;2024-01-11T03:58:14;48.35;;;16.67;;
80400;SDS011;69727;53.132;8.230;2024-01-11T04:00:40;50.45;;;16.50;;
80400;SDS011;69727;53.132;8.230;2024-01-11T04:03:06;51.72;;;17.25;;
80400;SDS011;69727;53.132;8.230;2024-01-11T04:05:31;46.28;;;15.48;;
80400;SDS011;69727;53.132;8.230;2024-01-11T04:07:57;50.25;;;16.77;;
80400;SDS011;69727;53.132;8.230;2024-01-11T04:10:23;51.92;;;17.17;;
80400;SDS011;69727;53.132;8.230;2024-01-11T04:12:49;49.65;;;16.10;;
80400;SDS011;69727;53.132;8.230;2024-01-11T04:15:14;46.78;;;17.00;;
80400;SDS011;69727;53.132;8.230;2024-01-11T04:17:40;48.65;;;16.17;;
80400;SDS011;69727;53.132;8.230;2024-01-11T04:20:06;43.22;;;15.60;;
80400;SDS011;69727;53.132;8.230;2024-01-11T04:22:35;47.03;;;16.15;;
80400;SDS011;69727;53.132;8.230;2024-01-11T04:25:04;52.63;;;16.92;;
80400;SDS011;69727;53.132;8.230;2024-01-11T04:27:30;53.83;;;17.20;;
80400;SDS011;69727;53.132;8.230;2024-01-11T04:29:56;42.70;;;15.32;;
80400;SDS011;69727;53.132;8.230;2024-01-11T04:32:22;49.50;;;16.67;;
80400;SDS011;69727;53.132;8.230;2024-01-11T04:34:50;48.55;;;16.50;;
80400;SDS011;69727;53.132;8.230;2024-01-11T04:37:16;47.67;;;15.95;;
80400;SDS011;69727;53.132;8.230;2024-01-11T04:39:44;46.20;;;14.90;;
80400;SDS011;69727;53.132;8.230;2024-01-11T04:42:10;46.90;;;16.05;;
80400;SDS011;69727;53.132;8.230;2024-01-11T04:44:36;52.67;;;17.90;;
80400;SDS011;69727;53.132;8.230;2024-01-11T04:47:02;44.63;;;16.33;;
80400;SDS011;69727;53.132;8.230;2024-01-11T04:49:35;48.47;;;15.48;;
80400;SDS011;69727;53.132;8.230;2024-01-11T04:52:00;49.97;;;16.83;;
80400;SDS011;69727;53.132;8.230;2024-01-11T04:54:26;47.85;;;17.48;;
80400;SDS011;69727;53.132;8.230;2024-01-11T04:56:52;50.15;;;17.30;;
80400;SDS011;69727;53.132;8.230;2024-01-11T04:59:17;56.70;;;17.45;;
80400;SDS011;69727;53.132;8.230;2024-01-11T05:01:46;44.33;;;14.65;;
80400;SDS011;69727;53.132;8.230;2024-01-11T05:04:11;58.38;;;19.50;;
80400;SDS011;69727;53.132;8.230;2024-01-11T05:06:37;55.55;;;18.83;;
80400;SDS011;69727;53.132;8.230;2024-01-11T05:09:03;49.80;;;15.73;;
80400;SDS011;69727;53.132;8.230;2024-01-11T05:11:29;48.90;;;18.10;;
80400;SDS011;69727;53.132;8.230;2024-01-11T05:13:58;51.78;;;17.23;;
80400;SDS011;69727;53.132;8.230;2024-01-11T05:16:26;54.67;;;20.02;;
80400;SDS011;69727;53.132;8.230;2024-01-11T05:18:55;61.97;;;19.90;;
80400;SDS011;69727;53.132;8.230;2024-01-11T05:21:25;56.38;;;17.98;;
80400;SDS011;69727;53.132;8.230;2024-01-11T05:23:54;51.30;;;18.85;;
80400;SDS011;69727;53.132;8.230;2024-01-11T05:26:22;53.50;;;16.23;;
80400;SDS011;69727;53.132;8.230;2024-01-11T05:28:50;58.58;;;18.42;;
80400;SDS011;69727;53.132;8.230;2024-01-11T05:31:16;57.53;;;19.08;;
80400;SDS011;69727;53.132;8.230;2024-01-11T05:33:47;59.45;;;17.48;;
80400;SDS011;69727;53.132;8.230;2024-01-11T05:36:12;59.67;;;18.48;;
80400;SDS011;69727;53.132;8.230;2024-01-11T05:38:39;58.90;;;18.00;;
80400;SDS011;69727;53.132;8.230;2024-01-11T05:41:05;51.13;;;16.30;;
80400;SDS011;69727;53.132;8.230;2024-01-11T05:43:32;50.05;;;18.65;;
80400;SDS011;69727;53.132;8.230;2024-01-11T05:46:01;55.80;;;18.52;;
80400;SDS011;69727;53.132;8.230;2024-01-11T05:48:27;54.63;;;17.77;;
80400;SDS011;69727;53.132;8.230;2024-01-11T05:50:55;57.10;;;19.52;;
80400;SDS011;69727;53.132;8.230;2024-01-11T05:53:20;57.15;;;17.98;;
80400;SDS011;69727;53.132;8.230;2024-01-11T05:55:46;53.42;;;16.70;;
80400;SDS011;69727;53.132;8.230;2024-01-11T05:58:13;65.90;;;19.10;;
80400;SDS011;69727;53.132;8.230;2024-01-11T06:00:39;57.15;;;17.95;;
80400;SDS011;69727;53.132;8.230;2024-01-11T06:03:05;59.03;;;19.33;;
80400;SDS011;69727;53.132;8.230;2024-01-11T06:05:31;59.78;;;19.70;;
80400;SDS011;69727;53.132;8.230;2024-01-11T06:07:56;56.58;;;18.63;;
80400;SDS011;69727;53.132;8.230;2024-01-11T06:10:25;58.10;;;16.83;;
80400;SDS011;69727;53.132;8.230;2024-01-11T06:12:56;59.70;;;19.80;;
80400;SDS011;69727;53.132;8.230;2024-01-11T06:15:25;65.95;;;19.77;;
80400;SDS011;69727;53.132;8.230;2024-01-11T06:17:53;61.88;;;17.70;;
80400;SDS011;69727;53.132;8.230;2024-01-11T06:20:19;61.17;;;18.48;;
80400;SDS011;69727;53.132;8.230;2024-01-11T06:22:47;60.80;;;18.77;;
80400;SDS011;69727;53.132;8.230;2024-01-11T06:25:13;60.17;;;19.58;;
80400;SDS011;69727;53.132;8.230;2024-01-11T06:27:42;58.13;;;19.05;;
80400;SDS011;69727;53.132;8.230;2024-01-11T06:30:08;60.22;;;18.40;;
80400;SDS011;69727;53.132;8.230;2024-01-11T06:32:34;56.00;;;17.35;;
80400;SDS011;69727;53.132;8.230;2024-01-11T06:35:00;61.05;;;18.95;;
80400;SDS011;69727;53.132;8.230;2024-01-11T06:37:27;59.83;;;19.73;;
80400;SDS011;69727;53.132;8.230;2024-01-11T06:39:53;77.97;;;20.17;;
80400;SDS011;69727;53.132;8.230;2024-01-11T06:42:20;54.95;;;18.42;;
80400;SDS011;69727;53.132;8.230;2024-01-11T06:44:46;57.65;;;18.67;;
80400;SDS011;69727;53.132;8.230;2024-01-11T06:47:15;54.28;;;17.30;;
80400;SDS011;69727;53.132;8.230;2024-01-11T06:49:45;58.90;;;18.98;;
80400;SDS011;69727;53.132;8.230;2024-01-11T06:52:10;60.30;;;18.77;;
80400;SDS011;69727;53.132;8.230;2024-01-11T06:54:39;62.72;;;18.80;;
80400;SDS011;69727;53.132;8.230;2024-01-11T06:57:07;61.55;;;18.80;;
80400;SDS011;69727;53.132;8.230;2024-01-11T06:59:33;62.75;;;18.73;;
80400;SDS011;69727;53.132;8.230;2024-01-11T07:01:59;61.22;;;18.63;;
80400;SDS011;69727;53.132;8.230;2024-01-11T07:04:32;60.95;;;18.75;;
80400;SDS011;69727;53.132;8.230;2024-01-11T07:07:00;57.05;;;17.13;;
80400;SDS011;69727;53.132;8.230;2024-01-11T07:09:26;60.17;;;18.50;;
80400;SDS011;69727;53.132;8.230;2024-01-11T07:11:59;67.30;;;19.85;;
80400;SDS011;69727;53.132;8.230;2024-01-11T07:14:48;57.08;;;18.02;;
80400;SDS011;69727;53.132;8.230;2024-01-11T07:17:21;69.53;;;19.48;;
80400;SDS011;69727;53.132;8.230;2024-01-11T07:23:48;62.58;;;18.20;;
80400;SDS011;69727;53.132;8.230;2024-01-11T08:22:33;58.85;;;19.30;;
80400;SDS011;69727;53.132;8.230;2024-01-11T08:25:06;68.60;;;19.50;;
80400;SDS011;69727;53.132;8.230;2024-01-11T08:34:53;55.40;;;18.08;;
80400;SDS011;69727;53.132;8.230;2024-01-11T08:40:22;62.80;;;18.40;;
80400;SDS011;69727;53.132;8.230;2024-01-11T08:43:06;61.17;;;17.48;;
80400;SDS011;69727;53.132;8.230;2024-01-11T08:45:36;59.97;;;18.60;;
80400;SDS011;69727;53.132;8.230;2024-01-11T08:51:29;52.22;;;17.73;;
80400;SDS011;69727;53.132;8.230;2024-01-11T08:53:55;60.17;;;18.30;;
80400;SDS011;69727;53.132;8.230;2024-01-11T08:56:24;52.53;;;17.60;;
80400;SDS011;69727;53.132;8.230;2024-01-11T08:58:49;59.50;;;17.75;;
80400;SDS011;69727;53.132;8.230;2024-01-11T09:01:20;52.97;;;16.08;;
80400;SDS011;69727;53.132;8.230;2024-01-11T09:03:50;58.30;;;16.92;;
80400;SDS011;69727;53.132;8.230;2024-01-11T09:06:19;53.63;;;17.52;;
80400;SDS011;69727;53.132;8.230;2024-01-11T09:08:50;60.88;;;18.38;;
80400;SDS011;69727;53.132;8.230;2024-01-11T09:11:20;59.20;;;17.25;;
80400;SDS011;69727;53.132;8.230;2024-01-11T09:13:47;62.83;;;18.80;;
80400;SDS011;69727;53.132;8.230;2024-01-11T09:16:18;60.47;;;19.55;;
80400;SDS011;69727;53.132;8.230;2024-01-11T09:22:02;53.80;;;17.00;;
80400;SDS011;69727;53.132;8.230;2024-01-11T09:24:29;50.40;;;16.27;;
80400;SDS011;69727;53.132;8.230;2024-01-11T09:29:29;59.33;;;17.23;;
80400;SDS011;69727;53.132;8.230;2024-01-11T09:32:05;59.03;;;17.73;;
80400;SDS011;69727;53.132;8.230;2024-01-11T09:34:31;69.93;;;19.13;;
80400;SDS011;69727;53.132;8.230;2024-01-11T09:37:02;57.90;;;18.15;;
80400;SDS011;69727;53.132;8.230;2024-01-11T09:39:34;64.22;;;19.60;;
80400;SDS011;69727;53.132;8.230;2024-01-11T09:42:11;52.97;;;18.17;;
80400;SDS011;69727;53.132;8.230;2024-01-11T09:47:32;56.45;;;17.15;;
80400;SDS011;69727;53.132;8.230;2024-01-11T09:50:03;60.40;;;17.52;;
80400;SDS011;69727;53.132;8.230;2024-01-11T09:52:30;47.65;;;16.90;;
80400;SDS011;69727;53.132;8.230;2024-01-11T09:54:59;53.35;;;15.63;;
80400;SDS011;69727;53.132;8.230;2024-01-11T09:57:41;53.67;;;17.85;;
80400;SDS011;69727;53.132;8.230;2024-01-11T10:00:13;56.28;;;19.13;;
80400;SDS011;69727;53.132;8.230;2024-01-11T10:02:52;51.08;;;17.40;;
80400;SDS011;69727;53.132;8.230;2024-01-11T10:05:26;55.38;;;17.90;;
80400;SDS011;69727;53.132;8.230;2024-01-11T10:08:02;53.10;;;19.38;;
80400;SDS011;69727;53.132;8.230;2024-01-11T10:10:33;52.33;;;18.30;;
80400;SDS011;69727;53.132;8.230;2024-01-11T10:13:05;53.03;;;16.58;;
80400;SDS011;69727;53.132;8.230;2024-01-11T10:15:36;46.58;;;16.60;;
80400;SDS011;69727;53.132;8.230;2024-01-11T10:18:14;55.50;;;17.95;;
80400;SDS011;69727;53.132;8.230;2024-01-11T10:20:48;48.75;;;17.15;;
80400;SDS011;69727;53.132;8.230;2024-01-11T10:23:20;52.47;;;17.17;;
80400;SDS011;69727;53.132;8.230;2024-01-11T10:25:50;59.53;;;18.38;;
80400;SDS011;69727;53.132;8.230;2024-01-11T10:28:43;54.75;;;18.33;;
80400;SDS011;69727;53.132;8.230;2024-01-11T10:31:42;53.90;;;17.90;;
80400;SDS011;69727;53.132;8.230;2024-01-11T10:44:35;51.20;;;17.52;;
80400;SDS011;69727;53.132;8.230;2024-01-11T10:47:30;49.88;;;16.63;;
80400;SDS011;69727;53.132;8.230;2024-01-11T11:16:11;44.00;;;15.73;;
80400;SDS011;69727;53.132;8.230;2024-01-11T11:19:37;45.50;;;15.48;;
80400;SDS011;69727;53.132;8.230;2024-01-11T11:22:33;50.08;;;17.67;;
80400;SDS011;69727;53.132;8.230;2024-01-11T11:25:48;43.35;;;14.73;;
80400;SDS011;69727;53.132;8.230;2024-01-11T11:28:23;46.92;;;15.88;;
80400;SDS011;69727;53.132;8.230;2024-01-11T11:30:55;41.88;;;16.00;;
80400;SDS011;69727;53.132;8.230;2024-01-11T12:23:38;35.00;;;12.77;;
80400;SDS011;69727;53.132;8.230;2024-01-11T12:26:15;32.95;;;13.27;;
80400;SDS011;69727;53.132;8.230;2024-01-11T12:28:48;35.33;;;13.32;;
80400;SDS011;69727;53.132;8.230;2024-01-11T12:31:16;38.45;;;13.68;;
80400;SDS011;69727;53.132;8.230;2024-01-11T12:33:50;33.42;;;13.23;;
80400;SDS011;69727;53.132;8.230;2024-01-11T12:36:23;34.25;;;13.68;;
80400;SDS011;69727;53.132;8.230;2024-01-11T12:38:57;35.58;;;12.88;;
80400;SDS011;69727;53.132;8.230;2024-01-11T12:42:15;31.17;;;11.60;;
80400;SDS011;69727;53.132;8.230;2024-01-11T12:44:57;31.50;;;12.52;;
80400;SDS011;69727;53.132;8.230;2024-01-11T12:47:23;34.42;;;12.88;;
80400;SDS011;69727;53.132;8.230;2024-01-11T12:50:01;33.97;;;11.60;;
80400;SDS011;69727;53.132;8.230;2024-01-11T12:52:33;31.13;;;11.43;;
80400;SDS011;69727;53.132;8.230;2024-01-11T12:55:04;33.35;;;11.80;;
80400;SDS011;69727;53.132;8.230;2024-01-11T12:57:32;33.58;;;13.23;;
80400;SDS011;69727;53.132;8.230;2024-01-11T13:00:18;30.85;;;11.57;;
80400;SDS011;69727;53.132;8.230;2024-01-11T13:02:44;30.17;;;12.02;;
80400;SDS011;69727;53.132;8.230;2024-01-11T13:05:11;36.25;;;12.45;;
80400;SDS011;69727;53.132;8.230;2024-01-11T13:07:36;29.92;;;10.95;;
80400;SDS011;69727;53.132;8.230;2024-01-11T13:10:02;31.20;;;11.75;;
80400;SDS011;69727;53.132;8.230;2024-01-11T13:12:29;31.50;;;11.73;;
80400;SDS011;69727;53.132;8.230;2024-01-11T13:14:54;32.40;;;11.93;;
80400;SDS011;69727;53.132;8.230;2024-01-11T13:17:21;29.77;;;12.65;;
80400;SDS011;69727;53.132;8.230;2024-01-11T13:19:47;29.00;;;11.57;;
80400;SDS011;69727;53.132;8.230;2024-01-11T13:22:12;32.70;;;12.23;;
80400;SDS011;69727;53.132;8.230;2024-01-11T13:24:38;29.75;;;12.50;;
80400;SDS011;69727;53.132;8.230;2024-01-11T13:27:03;35.08;;;12.25;;
80400;SDS011;69727;53.132;8.230;2024-01-11T13:29:29;30.15;;;11.13;;
80400;SDS011;69727;53.132;8.230;2024-01-11T13:31:55;33.17;;;11.70;;
80400;SDS011;69727;53.132;8.230;2024-01-11T13:34:20;31.63;;;11.18;;
80400;SDS011;69727;53.132;8.230;2024-01-11T13:36:46;30.95;;;11.02;;
80400;SDS011;69727;53.132;8.230;2024-01-11T13:39:14;30.27;;;11.27;;
80400;SDS011;69727;53.132;8.230;2024-01-11T13:41:43;25.35;;;10.32;;
80400;SDS011;69727;53.132;8.230;2024-01-11T13:44:09;29.15;;;11.25;;
80400;SDS011;69727;53.132;8.230;2024-01-11T13:46:35;28.10;;;11.30;;
80400;SDS011;69727;53.132;8.230;2024-01-11T13:49:00;27.35;;;11.30;;
80400;SDS011;69727;53.132;8.230;2024-01-11T13:51:26;27.92;;;11.63;;
80400;SDS011;69727;53.132;8.230;2024-01-11T13:53:51;31.67;;;12.60;;
80400;SDS011;69727;53.132;8.230;2024-01-11T13:56:16;27.00;;;10.93;;
80400;SDS011;69727;53.132;8.230;2024-01-11T13:58:42;27.92;;;11.43;;
80400;SDS011;69727;53.132;8.230;2024-01-11T14:01:09;29.05;;;11.50;;
80400;SDS011;69727;53.132;8.230;2024-01-11T14:03:36;28.10;;;10.93;;
80400;SDS011;69727;53.132;8.230;2024-01-11T14:06:01;28.40;;;12.05;;
80400;SDS011;69727;53.132;8.230;2024-01-11T14:08:27;30.55;;;12.57;;
80400;SDS011;69727;53.132;8.230;2024-01-11T14:10:53;30.45;;;12.48;;
80400;SDS011;69727;53.132;8.230;2024-01-11T14:13:19;27.40;;;11.35;;
80400;SDS011;69727;53.132;8.230;2024-01-11T14:15:45;28.00;;;11.40;;
80400;SDS011;69727;53.132;8.230;2024-01-11T14:18:13;25.90;;;11.20;;
80400;SDS011;69727;53.132;8.230;2024-01-11T14:20:38;30.25;;;11.70;;
80400;SDS011;69727;53.132;8.230;2024-01-11T14:23:04;28.38;;;11.45;;
80400;SDS011;69727;53.132;8.230;2024-01-11T14:25:29;29.95;;;11.18;;
80400;SDS011;69727;53.132;8.230;2024-01-11T14:27:55;29.85;;;11.70;;
80400;SDS011;69727;53.132;8.230;2024-01-11T14:30:21;26.90;;;11.82;;
80400;SDS011;69727;53.132;8.230;2024-01-11T14:32:47;28.00;;;12.80;;
80400;SDS011;69727;53.132;8.230;2024-01-11T14:35:13;28.35;;;12.55;;
80400;SDS011;69727;53.132;8.230;2024-01-11T14:37:39;26.05;;;11.68;;
80400;SDS011;69727;53.132;8.230;2024-01-11T14:40:05;27.10;;;12.15;;
80400;SDS011;69727;53.132;8.230;2024-01-11T14:42:32;29.90;;;12.85;;
80400;SDS011;69727;53.132;8.230;2024-01-11T14:44:58;25.13;;;10.88;;
80400;SDS011;69727;53.132;8.230;2024-01-11T14:47:24;25.75;;;10.82;;
80400;SDS011;69727;53.132;8.230;2024-01-11T14:49:50;25.85;;;10.95;;
80400;SDS011;69727;53.132;8.230;2024-01-11T14:52:16;29.20;;;12.13;;
80400;SDS011;69727;53.132;8.230;2024-01-11T14:54:43;33.90;;;12.45;;
80400;SDS011;69727;53.132;8.230;2024-01-11T14:57:13;28.10;;;12.63;;
80400;SDS011;69727;53.132;8.230;2024-01-11T14:59:39;28.45;;;11.25;;
80400;SDS011;69727;53.132;8.230;2024-01-11T15:02:07;30.20;;;12.90;;
80400;SDS011;69727;53.132;8.230;2024-01-11T15:04:34;27.73;;;12.40;;
80400;SDS011;69727;53.132;8.230;2024-01-11T15:07:02;28.95;;;11.55;;
80400;SDS011;69727;53.132;8.230;2024-01-11T15:09:40;28.13;;;12.30;;
80400;SDS011;69727;53.132;8.230;2024-01-11T15:12:11;28.40;;;12.48;;
80400;SDS011;69727;53.132;8.230;2024-01-11T15:14:39;29.73;;;12.13;;
80400;SDS011;69727;53.132;8.230;2024-01-11T15:17:05;30.77;;;12.07;;
80400;SDS011;69727;53.132;8.230;2024-01-11T15:19:30;31.08;;;12.80;;
80400;SDS011;69727;53.132;8.230;2024-01-11T15:21:56;27.80;;;11.80;;
80400;SDS011;69727;53.132;8.230;2024-01-11T15:24:24;26.77;;;12.82;;
80400;SDS011;69727;53.132;8.230;2024-01-11T15:26:50;32.85;;;13.25;;
80400;SDS011;69727;53.132;8.230;2024-01-11T15:29:15;30.70;;;13.05;;
80400;SDS011;69727;53.132;8.230;2024-01-11T15:31:44;35.90;;;12.90;;
80400;SDS011;69727;53.132;8.230;2024-01-11T15:34:15;26.98;;;12.35;;
80400;SDS011;69727;53.132;8.230;2024-01-11T15:36:43;31.63;;;12.52;;
80400;SDS011;69727;53.132;8.230;2024-01-11T15:39:09;27.15;;;12.15;;
80400;SDS011;69727;53.132;8.230;2024-01-11T15:41:34;25.40;;;12.27;;
80400;SDS011;69727;53.132;8.230;2024-01-11T15:44:00;26.50;;;11.73;;
80400;SDS011;69727;53.132;8.230;2024-01-11T15:46:25;35.15;;;13.95;;
80400;SDS011;69727;53.132;8.230;2024-01-11T15:48:51;29.05;;;12.35;;
80400;SDS011;69727;53.132;8.230;2024-01-11T15:51:17;31.23;;;13.65;;
80400;SDS011;69727;53.132;8.230;2024-01-11T15:53:42;34.58;;;13.32;;
80400;SDS011;69727;53.132;8.230;2024-01-11T15:56:09;44.75;;;13.82;;
80400;SDS011;69727;53.132;8.230;2024-01-11T15:58:34;29.67;;;12.80;;
80400;SDS011;69727;53.132;8.230;2024-01-11T16:00:59;33.35;;;13.05;;
80400;SDS011;69727;53.132;8.230;2024-01-11T16:03:25;32.80;;;13.50;;
80400;SDS011;69727;53.132;8.230;2024-01-11T16:05:56;30.30;;;12.90;;
80400;SDS011;69727;53.132;8.230;2024-01-11T16:08:22;36.63;;;13.65;;
80400;SDS011;69727;53.132;8.230;2024-01-11T16:10:47;32.67;;;13.13;;
80400;SDS011;69727;53.132;8.230;2024-01-11T16:13:13;32.15;;;14.10;;
80400;SDS011;69727;53.132;8.230;2024-01-11T16:15:38;34.38;;;14.80;;
80400;SDS011;69727;53.132;8.230;2024-01-11T16:18:04;35.10;;;13.85;;
80400;SDS011;69727;53.132;8.230;2024-01-11T16:20:29;32.58;;;14.23;;
80400;SDS011;69727;53.132;8.230;2024-01-11T16:22:55;39.97;;;14.82;;
80400;SDS011;69727;53.132;8.230;2024-01-11T16:25:20;35.75;;;14.23;;
80400;SDS011;69727;53.132;8.230;2024-01-11T16:27:46;34.88;;;15.90;;
80400;SDS011;69727;53.132;8.230;2024-01-11T16:30:12;38.38;;;15.55;;
80400;SDS011;69727;53.132;8.230;2024-01-11T16:32:37;36.00;;;15.52;;
80400;SDS011;69727;53.132;8.230;2024-01-11T16:35:03;33.70;;;14.75;;
80400;SDS011;69727;53.132;8.230;2024-01-11T16:37:30;34.47;;;15.43;;
80400;SDS011;69727;53.132;8.230;2024-01-11T16:39:58;33.03;;;13.40;;
80400;SDS011;69727;53.132;8.230;2024-01-11T16:42:24;34.67;;;14.77;;
80400;SDS011;69727;53.132;8.230;2024-01-11T16:44:50;35.53;;;14.73;;
80400;SDS011;69727;53.132;8.230;2024-01-11T16:47:16;35.60;;;15.63;;
80400;SDS011;69727;53.132;8.230;2024-01-11T16:49:41;37.03;;;15.32;;
80400;SDS011;69727;53.132;8.230;2024-01-11T16:52:08;45.63;;;17.92;;
80400;SDS011;69727;53.132;8.230;2024-01-11T16:54:34;36.65;;;16.83;;
80400;SDS011;69727;53.132;8.230;2024-01-11T16:57:00;39.00;;;15.43;;
80400;SDS011;69727;53.132;8.230;2024-01-11T16:59:25;38.08;;;15.40;;
80400;SDS011;69727;53.132;8.230;2024-01-11T17:01:52;36.90;;;15.35;;
80400;SDS011;69727;53.132;8.230;2024-01-11T17:04:17;40.92;;;17.20;;
80400;SDS011;69727;53.132;8.230;2024-01-11T17:06:43;41.00;;;17.42;;
80400;SDS011;69727;53.132;8.230;2024-01-11T17:09:11;42.92;;;16.65;;
80400;SDS011;69727;53.132;8.230;2024-01-11T17:11:40;42.20;;;15.60;;
80400;SDS011;69727;53.132;8.230;2024-01-11T17:14:08;39.97;;;15.88;;
80400;SDS011;69727;53.132;8.230;2024-01-11T17:16:33;40.25;;;17.58;;
80400;SDS011;69727;53.132;8.230;2024-01-11T17:18:59;37.08;;;16.08;;
80400;SDS011;69727;53.132;8.230;2024-01-11T17:21:27;37.55;;;15.52;;
80400;SDS011;69727;53.132;8.230;2024-01-11T17:23:53;38.30;;;15.75;;
80400;SDS011;69727;53.132;8.230;2024-01-11T17:26:19;39.53;;;17.13;;
80400;SDS011;69727;53.132;8.230;2024-01-11T17:29:30;40.38;;;16.90;;
80400;SDS011;69727;53.132;8.230;2024-01-11T17:35:08;43.22;;;17.23;;
80400;SDS011;69727;53.132;8.230;2024-01-11T17:37:43;37.25;;;15.13;;